sensor_id;sensor_type;location;lat;lon;timestamp;P1;durP1;ratioP1;P2;durP2;ratioP2
14021;SDS011;7086;48.116;11.580;2023-10-19T00:00:52;12.32;;;9.80;;
14021;SDS011;7086;48.116;11.580;2023-10-19T00:03:21;10.10;;;8.43;;
14021;SDS011;7086;48.116;11.580;2023-10-19T00:05:48;10.65;;;8.65;;
14021;SDS011;7086;48.116;11.580;2023-10-19T00:08:15;10.27;;;9.25;;
14021;SDS011;7086;48.116;11.580;2023-10-19T00:10:45;11.38;;;10.25;;
14021;SDS011;7086;48.116;11.580;2023-10-19T00:13:22;10.50;;;9.23;;
14021;SDS011;7086;48.116;11.580;2023-10-19T00:15:48;10.48;;;9.40;;
14021;SDS011;7086;48.116;11.580;2023-10-19T00:18:17;10.20;;;9.20;;
14021;SDS011;7086;48.116;11.580;2023-10-19T00:20:47;9.95;;;8.95;;
14021;SDS011;7086;48.116;11.580;2023-10-19T00:23:17;11.38;;;9.48;;
14021;SDS011;7086;48.116;11.580;2023-10-19T00:25:49;9.88;;;8.77;;
14021;SDS011;7086;48.116;11.580;2023-10-19T00:28:17;11.30;;;9.48;;
14021;SDS011;7086;48.116;11.580;2023-10-19T00:30:44;10.35;;;9.35;;
14021;SDS011;7086;48.116;11.580;2023-10-19T00:33:13;11.02;;;9.75;;
14021;SDS011;7086;48.116;11.580;2023-10-19T00:35:43;12.32;;;8.95;;
14021;SDS011;7086;48.116;11.580;2023-10-19T00:38:15;10.13;;;8.82;;
14021;SDS011;7086;48.116;11.580;2023-10-19T00:41:04;9.88;;;8.88;;
14021;SDS011;7086;48.116;11.580;2023-10-19T00:43:33;10.05;;;8.40;;
14021;SDS011;7086;48.116;11.580;2023-10-19T00:46:03;9.98;;;8.98;;
14021;SDS011;7086;48.116;11.580;2023-10-19T00:48:33;9.60;;;8.57;;
14021;SDS011;7086;48.116;11.580;2023-10-19T00:51:01;10.00;;;8.98;;
14021;SDS011;7086;48.116;11.580;2023-10-19T00:53:38;11.63;;;8.77;;
14021;SDS011;7086;48.116;11.580;2023-10-19T00:56:06;11.40;;;9.73;;
14021;SDS011;7086;48.116;11.580;2023-10-19T00:58:36;10.70;;;8.93;;
14021;SDS011;7086;48.116;11.580;2023-10-19T01:01:07;10.52;;;9.15;;
14021;SDS011;7086;48.116;11.580;2023-10-19T01:03:35;10.50;;;8.68;;
14021;SDS011;7086;48.116;11.580;2023-10-19T01:06:03;10.40;;;9.43;;
14021;SDS011;7086;48.116;11.580;2023-10-19T01:08:38;10.95;;;9.63;;
14021;SDS011;7086;48.116;11.580;2023-10-19T01:11:09;9.38;;;8.45;;
14021;SDS011;7086;48.116;11.580;2023-10-19T01:13:40;9.60;;;8.52;;
14021;SDS011;7086;48.116;11.580;2023-10-19T01:16:14;9.50;;;8.60;;
14021;SDS011;7086;48.116;11.580;2023-10-19T01:18:46;12.70;;;9.60;;
14021;SDS011;7086;48.116;11.580;2023-10-19T01:21:13;11.75;;;9.00;;
14021;SDS011;7086;48.116;11.580;2023-10-19T01:23:46;10.18;;;8.95;;
14021;SDS011;7086;48.116;11.580;2023-10-19T01:26:14;10.90;;;9.18;;
14021;SDS011;7086;48.116;11.580;2023-10-19T01:28:47;11.23;;;9.32;;
14021;SDS011;7086;48.116;11.580;2023-10-19T01:31:17;9.70;;;8.77;;
14021;SDS011;7086;48.116;11.580;2023-10-19T01:33:56;10.57;;;8.90;;
14021;SDS011;7086;48.116;11.580;2023-10-19T01:36:24;10.45;;;9.35;;
14021;SDS011;7086;48.116;11.580;2023-10-19T01:38:53;10.75;;;8.85;;
14021;SDS011;7086;48.116;11.580;2023-10-19T01:41:21;10.13;;;7.85;;
14021;SDS011;7086;48.116;11.580;2023-10-19T01:43:49;8.75;;;7.18;;
14021;SDS011;7086;48.116;11.580;2023-10-19T01:46:18;8.68;;;7.88;;
14021;SDS011;7086;48.116;11.580;2023-10-19T01:48:50;8.85;;;7.97;;
14021;SDS011;7086;48.116;11.580;2023-10-19T01:51:20;7.53;;;6.85;;
14021;SDS011;7086;48.116;11.580;2023-10-19T01:53:48;7.80;;;7.10;;
14021;SDS011;7086;48.116;11.580;2023-10-19T01:56:17;8.93;;;8.02;;
14021;SDS011;7086;48.116;11.580;2023-10-19T01:58:44;9.27;;;8.35;;
14021;SDS011;7086;48.116;11.580;2023-10-19T02:01:13;9.45;;;8.27;;
14021;SDS011;7086;48.116;11.580;2023-10-19T02:03:46;8.68;;;7.63;;
14021;SDS011;7086;48.116;11.580;2023-10-19T02:06:18;9.05;;;8.23;;
14021;SDS011;7086;48.116;11.580;2023-10-19T02:08:49;8.25;;;7.50;;
14021;SDS011;7086;48.116;11.580;2023-10-19T02:11:20;8.50;;;7.70;;
14021;SDS011;7086;48.116;11.580;2023-10-19T02:13:47;10.63;;;8.45;;
14021;SDS011;7086;48.116;11.580;2023-10-19T02:16:15;11.05;;;8.73;;
14021;SDS011;7086;48.116;11.580;2023-10-19T02:18:45;8.13;;;7.32;;
14021;SDS011;7086;48.116;11.580;2023-10-19T02:21:11;11.75;;;8.05;;
14021;SDS011;7086;48.116;11.580;2023-10-19T02:23:38;9.77;;;7.00;;
14021;SDS011;7086;48.116;11.580;2023-10-19T02:26:07;9.60;;;7.82;;
14021;SDS011;7086;48.116;11.580;2023-10-19T02:28:34;8.90;;;8.10;;
14021;SDS011;7086;48.116;11.580;2023-10-19T02:31:03;9.82;;;8.63;;
14021;SDS011;7086;48.116;11.580;2023-10-19T02:33:37;8.93;;;8.02;;
14021;SDS011;7086;48.116;11.580;2023-10-19T02:36:04;10.10;;;9.10;;
14021;SDS011;7086;48.116;11.580;2023-10-19T02:38:38;9.73;;;8.82;;
14021;SDS011;7086;48.116;11.580;2023-10-19T02:41:10;9.90;;;8.30;;
14021;SDS011;7086;48.116;11.580;2023-10-19T02:43:37;9.82;;;8.93;;
14021;SDS011;7086;48.116;11.580;2023-10-19T02:46:05;10.32;;;9.25;;
14021;SDS011;7086;48.116;11.580;2023-10-19T02:48:32;9.80;;;8.35;;
14021;SDS011;7086;48.116;11.580;2023-10-19T02:51:00;9.32;;;8.48;;
14021;SDS011;7086;48.116;11.580;2023-10-19T02:53:32;10.02;;;8.65;;
14021;SDS011;7086;48.116;11.580;2023-10-19T02:56:08;10.65;;;9.60;;
14021;SDS011;7086;48.116;11.580;2023-10-19T02:58:40;9.20;;;8.02;;
14021;SDS011;7086;48.116;11.580;2023-10-19T03:01:14;10.02;;;9.02;;
14021;SDS011;7086;48.116;11.580;2023-10-19T03:03:44;9.40;;;8.50;;
14021;SDS011;7086;48.116;11.580;2023-10-19T03:06:11;9.75;;;8.55;;
14021;SDS011;7086;48.116;11.580;2023-10-19T03:08:38;8.45;;;7.65;;
14021;SDS011;7086;48.116;11.580;2023-10-19T03:11:05;9.25;;;8.27;;
14021;SDS011;7086;48.116;11.580;2023-10-19T03:13:32;8.85;;;7.97;;
14021;SDS011;7086;48.116;11.580;2023-10-19T03:16:01;9.90;;;7.97;;
14021;SDS011;7086;48.116;11.580;2023-10-19T03:18:31;7.80;;;7.13;;
14021;SDS011;7086;48.116;11.580;2023-10-19T03:20:59;10.68;;;8.52;;
14021;SDS011;7086;48.116;11.580;2023-10-19T03:23:26;9.15;;;8.23;;
14021;SDS011;7086;48.116;11.580;2023-10-19T03:25:54;7.72;;;7.03;;
14021;SDS011;7086;48.116;11.580;2023-10-19T03:28:39;8.13;;;7.30;;
14021;SDS011;7086;48.116;11.580;2023-10-19T03:31:09;11.20;;;8.07;;
14021;SDS011;7086;48.116;11.580;2023-10-19T03:33:42;8.57;;;7.75;;
14021;SDS011;7086;48.116;11.580;2023-10-19T03:36:13;8.38;;;7.57;;
14021;SDS011;7086;48.116;11.580;2023-10-19T03:38:40;8.63;;;7.75;;
14021;SDS011;7086;48.116;11.580;2023-10-19T03:41:08;8.90;;;8.00;;
14021;SDS011;7086;48.116;11.580;2023-10-19T03:43:36;8.13;;;7.35;;
14021;SDS011;7086;48.116;11.580;2023-10-19T03:46:05;7.80;;;6.90;;
14021;SDS011;7086;48.116;11.580;2023-10-19T03:48:42;13.20;;;8.05;;
14021;SDS011;7086;48.116;11.580;2023-10-19T03:51:12;9.02;;;8.13;;
14021;SDS011;7086;48.116;11.580;2023-10-19T03:53:40;9.50;;;7.55;;
14021;SDS011;7086;48.116;11.580;2023-10-19T03:56:12;8.07;;;7.30;;
14021;SDS011;7086;48.116;11.580;2023-10-19T03:58:43;7.13;;;6.43;;
14021;SDS011;7086;48.116;11.580;2023-10-19T04:01:15;7.72;;;7.00;;
14021;SDS011;7086;48.116;11.580;2023-10-19T04:03:46;8.25;;;7.45;;
14021;SDS011;7086;48.116;11.580;2023-10-19T04:06:14;7.13;;;6.43;;
14021;SDS011;7086;48.116;11.580;2023-10-19T04:08:41;7.95;;;6.85;;
14021;SDS011;7086;48.116;11.580;2023-10-19T04:11:12;7.18;;;6.47;;
14021;SDS011;7086;48.116;11.580;2023-10-19T04:13:47;8.38;;;7.47;;
14021;SDS011;7086;48.116;11.580;2023-10-19T04:16:18;7.15;;;6.38;;
14021;SDS011;7086;48.116;11.580;2023-10-19T04:18:50;7.63;;;6.80;;
14021;SDS011;7086;48.116;11.580;2023-10-19T04:21:19;7.30;;;6.65;;
14021;SDS011;7086;48.116;11.580;2023-10-19T04:23:46;7.20;;;6.60;;
14021;SDS011;7086;48.116;11.580;2023-10-19T04:26:13;8.40;;;7.22;;
14021;SDS011;7086;48.116;11.580;2023-10-19T04:28:43;6.15;;;5.55;;
14021;SDS011;7086;48.116;11.580;2023-10-19T04:31:15;6.28;;;5.70;;
14021;SDS011;7086;48.116;11.580;2023-10-19T04:33:44;6.10;;;5.60;;
14021;SDS011;7086;48.116;11.580;2023-10-19T04:36:17;8.52;;;6.20;;
14021;SDS011;7086;48.116;11.580;2023-10-19T04:38:46;9.10;;;7.82;;
14021;SDS011;7086;48.116;11.580;2023-10-19T04:41:13;16.58;;;13.50;;
14021;SDS011;7086;48.116;11.580;2023-10-19T04:43:40;9.88;;;8.85;;
14021;SDS011;7086;48.116;11.580;2023-10-19T04:46:13;9.70;;;8.63;;
14021;SDS011;7086;48.116;11.580;2023-10-19T04:48:40;10.45;;;7.53;;
14021;SDS011;7086;48.116;11.580;2023-10-19T04:51:07;9.32;;;8.43;;
14021;SDS011;7086;48.116;11.580;2023-10-19T04:53:36;7.53;;;6.82;;
14021;SDS011;7086;48.116;11.580;2023-10-19T04:56:04;6.85;;;6.20;;
14021;SDS011;7086;48.116;11.580;2023-10-19T04:58:34;9.20;;;6.80;;
14021;SDS011;7086;48.116;11.580;2023-10-19T05:01:01;6.15;;;5.63;;
14021;SDS011;7086;48.116;11.580;2023-10-19T05:03:29;6.68;;;6.07;;
14021;SDS011;7086;48.116;11.580;2023-10-19T05:05:56;6.68;;;5.55;;
14021;SDS011;7086;48.116;11.580;2023-10-19T05:08:35;8.93;;;6.95;;
14021;SDS011;7086;48.116;11.580;2023-10-19T05:12:10;6.45;;;5.95;;
14021;SDS011;7086;48.116;11.580;2023-10-19T05:15:02;6.43;;;5.82;;
14021;SDS011;7086;48.116;11.580;2023-10-19T05:17:31;7.18;;;6.57;;
14021;SDS011;7086;48.116;11.580;2023-10-19T05:21:02;6.03;;;5.50;;
14021;SDS011;7086;48.116;11.580;2023-10-19T05:23:41;6.38;;;5.78;;
14021;SDS011;7086;48.116;11.580;2023-10-19T05:26:40;7.35;;;6.20;;
14021;SDS011;7086;48.116;11.580;2023-10-19T05:29:08;9.25;;;5.80;;
14021;SDS011;7086;48.116;11.580;2023-10-19T05:31:38;9.20;;;6.30;;
14021;SDS011;7086;48.116;11.580;2023-10-19T05:34:05;6.30;;;5.72;;
14021;SDS011;7086;48.116;11.580;2023-10-19T05:36:33;51.95;;;37.63;;
14021;SDS011;7086;48.116;11.580;2023-10-19T05:39:00;34.35;;;25.60;;
14021;SDS011;7086;48.116;11.580;2023-10-19T05:41:29;12.10;;;9.25;;
14021;SDS011;7086;48.116;11.580;2023-10-19T05:43:56;7.22;;;6.13;;
14021;SDS011;7086;48.116;11.580;2023-10-19T05:46:25;6.88;;;4.97;;
14021;SDS011;7086;48.116;11.580;2023-10-19T05:48:54;4.88;;;4.45;;
14021;SDS011;7086;48.116;11.580;2023-10-19T05:51:21;4.47;;;4.13;;
14021;SDS011;7086;48.116;11.580;2023-10-19T05:53:48;4.70;;;4.30;;
14021;SDS011;7086;48.116;11.580;2023-10-19T05:56:18;5.03;;;4.63;;
14021;SDS011;7086;48.116;11.580;2023-10-19T05:58:46;5.78;;;5.22;;
14021;SDS011;7086;48.116;11.580;2023-10-19T06:01:16;7.07;;;5.38;;
14021;SDS011;7086;48.116;11.580;2023-10-19T06:03:45;5.15;;;4.68;;
14021;SDS011;7086;48.116;11.580;2023-10-19T06:06:12;5.18;;;4.38;;
14021;SDS011;7086;48.116;11.580;2023-10-19T06:08:40;5.18;;;4.68;;
14021;SDS011;7086;48.116;11.580;2023-10-19T06:11:06;5.43;;;4.93;;
14021;SDS011;7086;48.116;11.580;2023-10-19T06:13:33;6.22;;;5.00;;
14021;SDS011;7086;48.116;11.580;2023-10-19T06:16:00;6.22;;;4.72;;
14021;SDS011;7086;48.116;11.580;2023-10-19T06:18:28;5.22;;;4.82;;
14021;SDS011;7086;48.116;11.580;2023-10-19T06:20:56;6.57;;;6.05;;
14021;SDS011;7086;48.116;11.580;2023-10-19T06:23:23;5.68;;;5.15;;
14021;SDS011;7086;48.116;11.580;2023-10-19T06:25:50;5.78;;;4.50;;
14021;SDS011;7086;48.116;11.580;2023-10-19T06:28:17;5.75;;;5.30;;
14021;SDS011;7086;48.116;11.580;2023-10-19T06:30:45;8.18;;;4.97;;
14021;SDS011;7086;48.116;11.580;2023-10-19T06:33:13;12.57;;;6.68;;
14021;SDS011;7086;48.116;11.580;2023-10-19T06:35:40;6.57;;;5.68;;
14021;SDS011;7086;48.116;11.580;2023-10-19T06:38:08;5.55;;;4.70;;
14021;SDS011;7086;48.116;11.580;2023-10-19T06:40:35;5.78;;;3.95;;
14021;SDS011;7086;48.116;11.580;2023-10-19T06:43:02;5.75;;;4.15;;
14021;SDS011;7086;48.116;11.580;2023-10-19T06:45:30;7.03;;;4.30;;
14021;SDS011;7086;48.116;11.580;2023-10-19T06:47:58;4.90;;;4.50;;
14021;SDS011;7086;48.116;11.580;2023-10-19T06:50:26;5.43;;;5.03;;
14021;SDS011;7086;48.116;11.580;2023-10-19T06:52:53;6.07;;;4.80;;
14021;SDS011;7086;48.116;11.580;2023-10-19T06:55:22;5.03;;;4.53;;
14021;SDS011;7086;48.116;11.580;2023-10-19T06:57:50;4.93;;;4.53;;
14021;SDS011;7086;48.116;11.580;2023-10-19T07:00:18;3.90;;;3.60;;
14021;SDS011;7086;48.116;11.580;2023-10-19T07:02:47;3.92;;;3.67;;
14021;SDS011;7086;48.116;11.580;2023-10-19T07:05:16;6.07;;;4.55;;
14021;SDS011;7086;48.116;11.580;2023-10-19T07:07:47;6.07;;;4.70;;
14021;SDS011;7086;48.116;11.580;2023-10-19T07:10:17;5.85;;;4.10;;
14021;SDS011;7086;48.116;11.580;2023-10-19T07:12:46;4.07;;;3.58;;
14021;SDS011;7086;48.116;11.580;2023-10-19T07:15:14;5.88;;;3.95;;
14021;SDS011;7086;48.116;11.580;2023-10-19T07:17:44;6.90;;;4.35;;
14021;SDS011;7086;48.116;11.580;2023-10-19T07:20:12;7.78;;;4.50;;
14021;SDS011;7086;48.116;11.580;2023-10-19T07:22:50;5.07;;;3.88;;
14021;SDS011;7086;48.116;11.580;2023-10-19T07:25:17;4.03;;;3.67;;
14021;SDS011;7086;48.116;11.580;2023-10-19T07:27:48;3.22;;;2.95;;
14021;SDS011;7086;48.116;11.580;2023-10-19T07:30:16;3.40;;;3.08;;
14021;SDS011;7086;48.116;11.580;2023-10-19T07:32:47;4.10;;;3.58;;
14021;SDS011;7086;48.116;11.580;2023-10-19T07:35:20;5.75;;;3.55;;
14021;SDS011;7086;48.116;11.580;2023-10-19T07:37:48;5.13;;;3.47;;
14021;SDS011;7086;48.116;11.580;2023-10-19T07:40:16;3.63;;;3.33;;
14021;SDS011;7086;48.116;11.580;2023-10-19T07:42:43;3.35;;;2.92;;
14021;SDS011;7086;48.116;11.580;2023-10-19T07:45:13;3.78;;;3.00;;
14021;SDS011;7086;48.116;11.580;2023-10-19T07:47:40;3.67;;;3.38;;
14021;SDS011;7086;48.116;11.580;2023-10-19T07:50:09;4.10;;;2.97;;
14021;SDS011;7086;48.116;11.580;2023-10-19T07:52:41;4.10;;;3.03;;
14021;SDS011;7086;48.116;11.580;2023-10-19T07:55:09;4.30;;;3.90;;
14021;SDS011;7086;48.116;11.580;2023-10-19T07:57:37;12.93;;;4.78;;
14021;SDS011;7086;48.116;11.580;2023-10-19T08:00:06;3.88;;;3.20;;
14021;SDS011;7086;48.116;11.580;2023-10-19T08:02:37;5.05;;;3.15;;
14021;SDS011;7086;48.116;11.580;2023-10-19T08:05:06;3.28;;;2.63;;
14021;SDS011;7086;48.116;11.580;2023-10-19T08:07:33;2.58;;;2.47;;
14021;SDS011;7086;48.116;11.580;2023-10-19T08:10:01;2.75;;;2.22;;
14021;SDS011;7086;48.116;11.580;2023-10-19T08:12:30;2.67;;;2.47;;
14021;SDS011;7086;48.116;11.580;2023-10-19T08:14:58;3.78;;;2.70;;
14021;SDS011;7086;48.116;11.580;2023-10-19T08:17:25;2.72;;;2.53;;
14021;SDS011;7086;48.116;11.580;2023-10-19T08:19:53;4.57;;;4.00;;
14021;SDS011;7086;48.116;11.580;2023-10-19T08:22:21;3.03;;;2.80;;
14021;SDS011;7086;48.116;11.580;2023-10-19T08:24:48;2.88;;;2.67;;
14021;SDS011;7086;48.116;11.580;2023-10-19T08:27:17;3.42;;;2.42;;
14021;SDS011;7086;48.116;11.580;2023-10-19T08:29:44;4.28;;;2.67;;
14021;SDS011;7086;48.116;11.580;2023-10-19T08:32:11;2.95;;;2.75;;
14021;SDS011;7086;48.116;11.580;2023-10-19T08:34:39;4.05;;;3.70;;
14021;SDS011;7086;48.116;11.580;2023-10-19T08:37:08;3.92;;;2.65;;
14021;SDS011;7086;48.116;11.580;2023-10-19T08:39:36;3.03;;;2.83;;
14021;SDS011;7086;48.116;11.580;2023-10-19T08:42:03;2.85;;;2.45;;
14021;SDS011;7086;48.116;11.580;2023-10-19T08:44:31;3.33;;;2.92;;
14021;SDS011;7086;48.116;11.580;2023-10-19T08:46:58;3.25;;;3.05;;
14021;SDS011;7086;48.116;11.580;2023-10-19T08:49:25;3.55;;;3.25;;
14021;SDS011;7086;48.116;11.580;2023-10-19T08:51:53;3.13;;;2.92;;
14021;SDS011;7086;48.116;11.580;2023-10-19T08:54:22;4.82;;;2.75;;
14021;SDS011;7086;48.116;11.580;2023-10-19T08:56:51;3.83;;;2.63;;
14021;SDS011;7086;48.116;11.580;2023-10-19T08:59:20;3.33;;;2.65;;
14021;SDS011;7086;48.116;11.580;2023-10-19T09:01:48;3.45;;;3.03;;
14021;SDS011;7086;48.116;11.580;2023-10-19T09:04:15;2.85;;;2.58;;
14021;SDS011;7086;48.116;11.580;2023-10-19T09:06:42;3.58;;;2.85;;
14021;SDS011;7086;48.116;11.580;2023-10-19T09:09:10;3.00;;;2.80;;
14021;SDS011;7086;48.116;11.580;2023-10-19T09:11:43;2.90;;;2.70;;
14021;SDS011;7086;48.116;11.580;2023-10-19T09:14:11;3.60;;;2.63;;
14021;SDS011;7086;48.116;11.580;2023-10-19T09:16:41;3.35;;;3.05;;
14021;SDS011;7086;48.116;11.580;2023-10-19T09:19:21;2.70;;;2.55;;
14021;SDS011;7086;48.116;11.580;2023-10-19T09:21:47;2.75;;;2.55;;
14021;SDS011;7086;48.116;11.580;2023-10-19T09:24:14;3.50;;;2.13;;
14021;SDS011;7086;48.116;11.580;2023-10-19T09:26:41;3.08;;;2.17;;
14021;SDS011;7086;48.116;11.580;2023-10-19T09:29:12;1.92;;;1.77;;
14021;SDS011;7086;48.116;11.580;2023-10-19T09:31:43;2.97;;;2.00;;
14021;SDS011;7086;48.116;11.580;2023-10-19T09:34:12;3.47;;;1.83;;
14021;SDS011;7086;48.116;11.580;2023-10-19T09:36:39;2.08;;;1.98;;
14021;SDS011;7086;48.116;11.580;2023-10-19T09:39:08;2.17;;;1.90;;
14021;SDS011;7086;48.116;11.580;2023-10-19T09:41:38;3.92;;;2.10;;
14021;SDS011;7086;48.116;11.580;2023-10-19T09:44:07;2.25;;;2.08;;
14021;SDS011;7086;48.116;11.580;2023-10-19T09:46:38;1.95;;;1.83;;
14021;SDS011;7086;48.116;11.580;2023-10-19T09:49:07;2.10;;;1.80;;
14021;SDS011;7086;48.116;11.580;2023-10-19T09:51:36;2.38;;;1.88;;
14021;SDS011;7086;48.116;11.580;2023-10-19T09:54:05;1.70;;;1.60;;
14021;SDS011;7086;48.116;11.580;2023-10-19T09:56:40;1.60;;;1.50;;
14021;SDS011;7086;48.116;11.580;2023-10-19T09:59:13;2.85;;;2.20;;
14021;SDS011;7086;48.116;11.580;2023-10-19T10:02:06;2.03;;;1.92;;
14021;SDS011;7086;48.116;11.580;2023-10-19T10:04:37;3.00;;;1.83;;
14021;SDS011;7086;48.116;11.580;2023-10-19T10:07:06;2.35;;;2.03;;
14021;SDS011;7086;48.116;11.580;2023-10-19T10:09:35;2.15;;;2.05;;
14021;SDS011;7086;48.116;11.580;2023-10-19T10:12:18;2.45;;;2.22;;
14021;SDS011;7086;48.116;11.580;2023-10-19T10:14:56;2.70;;;2.28;;
14021;SDS011;7086;48.116;11.580;2023-10-19T10:17:24;2.85;;;2.58;;
14021;SDS011;7086;48.116;11.580;2023-10-19T10:19:56;5.05;;;2.88;;
14021;SDS011;7086;48.116;11.580;2023-10-19T10:22:43;3.67;;;2.50;;
14021;SDS011;7086;48.116;11.580;2023-10-19T10:25:24;7.65;;;4.18;;
14021;SDS011;7086;48.116;11.580;2023-10-19T10:27:53;3.25;;;3.05;;
14021;SDS011;7086;48.116;11.580;2023-10-19T10:30:22;3.08;;;2.88;;
14021;SDS011;7086;48.116;11.580;2023-10-19T10:32:49;2.85;;;2.65;;
14021;SDS011;7086;48.116;11.580;2023-10-19T10:38:22;2.80;;;2.45;;
14021;SDS011;7086;48.116;11.580;2023-10-19T10:40:49;2.35;;;2.20;;
14021;SDS011;7086;48.116;11.580;2023-10-19T10:43:17;3.92;;;2.50;;
14021;SDS011;7086;48.116;11.580;2023-10-19T10:45:48;3.00;;;2.80;;
14021;SDS011;7086;48.116;11.580;2023-10-19T10:48:16;3.25;;;3.03;;
14021;SDS011;7086;48.116;11.580;2023-10-19T10:50:45;2.38;;;2.15;;
14021;SDS011;7086;48.116;11.580;2023-10-19T10:53:12;3.22;;;2.88;;
14021;SDS011;7086;48.116;11.580;2023-10-19T10:55:40;4.70;;;2.70;;
14021;SDS011;7086;48.116;11.580;2023-10-19T10:58:07;2.58;;;2.33;;
14021;SDS011;7086;48.116;11.580;2023-10-19T11:00:41;4.47;;;2.55;;
14021;SDS011;7086;48.116;11.580;2023-10-19T11:03:10;3.20;;;2.60;;
14021;SDS011;7086;48.116;11.580;2023-10-19T11:05:37;3.13;;;2.83;;
14021;SDS011;7086;48.116;11.580;2023-10-19T11:08:06;3.30;;;2.92;;
14021;SDS011;7086;48.116;11.580;2023-10-19T11:10:34;5.60;;;2.90;;
14021;SDS011;7086;48.116;11.580;2023-10-19T11:13:02;4.43;;;2.67;;
14021;SDS011;7086;48.116;11.580;2023-10-19T11:15:30;2.60;;;2.40;;
14021;SDS011;7086;48.116;11.580;2023-10-19T11:17:58;6.10;;;3.10;;
14021;SDS011;7086;48.116;11.580;2023-10-19T11:20:26;4.22;;;3.25;;
14021;SDS011;7086;48.116;11.580;2023-10-19T11:22:53;3.92;;;2.53;;
14021;SDS011;7086;48.116;11.580;2023-10-19T11:25:22;5.63;;;2.72;;
14021;SDS011;7086;48.116;11.580;2023-10-19T11:27:53;2.47;;;2.25;;
14021;SDS011;7086;48.116;11.580;2023-10-19T11:30:24;3.75;;;3.45;;
14021;SDS011;7086;48.116;11.580;2023-10-19T11:32:52;3.25;;;2.90;;
14021;SDS011;7086;48.116;11.580;2023-10-19T11:35:22;3.33;;;3.03;;
14021;SDS011;7086;48.116;11.580;2023-10-19T11:37:55;4.88;;;2.83;;
14021;SDS011;7086;48.116;11.580;2023-10-19T11:40:24;4.55;;;2.83;;
14021;SDS011;7086;48.116;11.580;2023-10-19T11:42:52;5.38;;;3.33;;
14021;SDS011;7086;48.116;11.580;2023-10-19T11:45:22;4.03;;;2.83;;
14021;SDS011;7086;48.116;11.580;2023-10-19T11:47:52;4.45;;;3.97;;
14021;SDS011;7086;48.116;11.580;2023-10-19T11:50:19;3.42;;;3.13;;
14021;SDS011;7086;48.116;11.580;2023-10-19T11:52:47;3.15;;;2.80;;
14021;SDS011;7086;48.116;11.580;2023-10-19T11:55:15;6.03;;;3.42;;
14021;SDS011;7086;48.116;11.580;2023-10-19T11:57:42;3.90;;;3.22;;
14021;SDS011;7086;48.116;11.580;2023-10-19T12:00:10;3.33;;;3.13;;
14021;SDS011;7086;48.116;11.580;2023-10-19T12:02:45;5.10;;;2.85;;
14021;SDS011;7086;48.116;11.580;2023-10-19T12:05:12;2.90;;;2.60;;
14021;SDS011;7086;48.116;11.580;2023-10-19T12:07:39;5.90;;;3.22;;
14021;SDS011;7086;48.116;11.580;2023-10-19T12:10:08;3.13;;;2.85;;
14021;SDS011;7086;48.116;11.580;2023-10-19T12:12:37;2.85;;;2.60;;
14021;SDS011;7086;48.116;11.580;2023-10-19T12:15:05;3.10;;;2.33;;
14021;SDS011;7086;48.116;11.580;2023-10-19T12:17:33;5.18;;;2.92;;
14021;SDS011;7086;48.116;11.580;2023-10-19T12:20:00;2.90;;;2.63;;
14021;SDS011;7086;48.116;11.580;2023-10-19T12:22:27;4.05;;;3.00;;
14021;SDS011;7086;48.116;11.580;2023-10-19T12:24:57;7.00;;;3.58;;
14021;SDS011;7086;48.116;11.580;2023-10-19T12:27:26;7.43;;;2.97;;
14021;SDS011;7086;48.116;11.580;2023-10-19T12:29:53;5.50;;;3.90;;
14021;SDS011;7086;48.116;11.580;2023-10-19T12:32:20;4.30;;;3.90;;
14021;SDS011;7086;48.116;11.580;2023-10-19T12:34:48;5.13;;;3.35;;
14021;SDS011;7086;48.116;11.580;2023-10-19T12:37:18;3.25;;;2.75;;
14021;SDS011;7086;48.116;11.580;2023-10-19T12:39:45;3.47;;;3.28;;
14021;SDS011;7086;48.116;11.580;2023-10-19T12:42:14;3.22;;;2.85;;
14021;SDS011;7086;48.116;11.580;2023-10-19T12:44:43;4.03;;;2.78;;
14021;SDS011;7086;48.116;11.580;2023-10-19T12:47:11;2.50;;;2.30;;
14021;SDS011;7086;48.116;11.580;2023-10-19T12:49:43;2.85;;;2.00;;
14021;SDS011;7086;48.116;11.580;2023-10-19T12:52:12;1.98;;;1.73;;
14021;SDS011;7086;48.116;11.580;2023-10-19T12:54:40;2.92;;;2.10;;
14021;SDS011;7086;48.116;11.580;2023-10-19T12:57:16;2.03;;;1.77;;
14021;SDS011;7086;48.116;11.580;2023-10-19T12:59:55;1.75;;;1.65;;
14021;SDS011;7086;48.116;11.580;2023-10-19T13:02:22;1.75;;;1.65;;
14021;SDS011;7086;48.116;11.580;2023-10-19T13:04:49;2.50;;;1.92;;
14021;SDS011;7086;48.116;11.580;2023-10-19T13:07:16;1.70;;;1.60;;
14021;SDS011;7086;48.116;11.580;2023-10-19T13:09:43;1.65;;;1.55;;
14021;SDS011;7086;48.116;11.580;2023-10-19T13:12:10;1.88;;;1.33;;
14021;SDS011;7086;48.116;11.580;2023-10-19T13:14:37;1.55;;;1.45;;
14021;SDS011;7086;48.116;11.580;2023-10-19T13:17:07;1.30;;;1.20;;
14021;SDS011;7086;48.116;11.580;2023-10-19T13:19:34;2.45;;;2.00;;
14021;SDS011;7086;48.116;11.580;2023-10-19T13:22:02;1.60;;;1.50;;
14021;SDS011;7086;48.116;11.580;2023-10-19T13:24:32;1.50;;;1.40;;
14021;SDS011;7086;48.116;11.580;2023-10-19T13:27:05;2.63;;;2.10;;
14021;SDS011;7086;48.116;11.580;2023-10-19T13:29:32;2.30;;;1.73;;
14021;SDS011;7086;48.116;11.580;2023-10-19T13:32:03;1.88;;;1.50;;
14021;SDS011;7086;48.116;11.580;2023-10-19T13:34:32;1.75;;;1.65;;
14021;SDS011;7086;48.116;11.580;2023-10-19T13:36:59;1.50;;;1.45;;
14021;SDS011;7086;48.116;11.580;2023-10-19T13:39:26;2.03;;;1.73;;
14021;SDS011;7086;48.116;11.580;2023-10-19T13:41:53;3.63;;;1.60;;
14021;SDS011;7086;48.116;11.580;2023-10-19T13:44:20;1.88;;;1.77;;
14021;SDS011;7086;48.116;11.580;2023-10-19T13:46:48;2.17;;;1.83;;
14021;SDS011;7086;48.116;11.580;2023-10-19T13:49:16;1.60;;;1.50;;
14021;SDS011;7086;48.116;11.580;2023-10-19T13:51:45;1.80;;;1.70;;
14021;SDS011;7086;48.116;11.580;2023-10-19T13:54:12;2.33;;;1.95;;
14021;SDS011;7086;48.116;11.580;2023-10-19T13:56:39;2.05;;;1.95;;
14021;SDS011;7086;48.116;11.580;2023-10-19T13:59:07;2.08;;;1.90;;
14021;SDS011;7086;48.116;11.580;2023-10-19T14:01:36;4.85;;;1.80;;
14021;SDS011;7086;48.116;11.580;2023-10-19T14:04:03;4.70;;;1.75;;
14021;SDS011;7086;48.116;11.580;2023-10-19T14:06:30;1.80;;;1.70;;
14021;SDS011;7086;48.116;11.580;2023-10-19T14:08:58;3.42;;;1.90;;
14021;SDS011;7086;48.116;11.580;2023-10-19T14:11:25;2.88;;;2.13;;
14021;SDS011;7086;48.116;11.580;2023-10-19T14:13:52;4.15;;;1.85;;
14021;SDS011;7086;48.116;11.580;2023-10-19T14:16:19;2.08;;;1.90;;
14021;SDS011;7086;48.116;11.580;2023-10-19T14:18:48;2.83;;;2.65;;
14021;SDS011;7086;48.116;11.580;2023-10-19T14:21:15;2.58;;;2.33;;
14021;SDS011;7086;48.116;11.580;2023-10-19T14:23:45;3.08;;;2.72;;
14021;SDS011;7086;48.116;11.580;2023-10-19T14:26:14;4.10;;;3.17;;
14021;SDS011;7086;48.116;11.580;2023-10-19T14:28:42;6.00;;;3.28;;
14021;SDS011;7086;48.116;11.580;2023-10-19T14:31:09;6.68;;;3.10;;
14021;SDS011;7086;48.116;11.580;2023-10-19T14:33:37;3.78;;;2.80;;
14021;SDS011;7086;48.116;11.580;2023-10-19T14:36:04;4.05;;;3.60;;
14021;SDS011;7086;48.116;11.580;2023-10-19T14:38:32;3.83;;;3.22;;
14021;SDS011;7086;48.116;11.580;2023-10-19T14:40:58;4.15;;;3.80;;
14021;SDS011;7086;48.116;11.580;2023-10-19T14:43:27;3.25;;;3.05;;
14021;SDS011;7086;48.116;11.580;2023-10-19T14:45:54;4.00;;;3.58;;
14021;SDS011;7086;48.116;11.580;2023-10-19T14:48:22;4.80;;;3.90;;
14021;SDS011;7086;48.116;11.580;2023-10-19T14:50:49;4.47;;;4.00;;
14021;SDS011;7086;48.116;11.580;2023-10-19T14:53:16;4.65;;;4.25;;
14021;SDS011;7086;48.116;11.580;2023-10-19T14:55:43;4.18;;;3.97;;
14021;SDS011;7086;48.116;11.580;2023-10-19T14:58:11;4.30;;;4.03;;
14021;SDS011;7086;48.116;11.580;2023-10-19T15:00:39;4.43;;;4.00;;
14021;SDS011;7086;48.116;11.580;2023-10-19T15:03:09;5.03;;;4.57;;